sensor_id;sensor_type;location;lat;lon;timestamp;pressure;altitude;pressure_sealevel;temperature;humidity
45523;BME280;31254;51.680;5.394;2023-12-20T00:01:02;101666.00;;;8.54;98.65
45523;BME280;31254;51.680;5.394;2023-12-20T00:03:30;101624.94;;;8.33;98.43
45523;BME280;31254;51.680;5.394;2023-12-20T00:06:08;101476.47;;;7.35;98.17
45523;BME280;31254;51.680;5.394;2023-12-20T00:08:34;101612.78;;;8.26;98.30
45523;BME280;31254;51.680;5.394;2023-12-20T00:11:01;101670.47;;;8.66;98.44
45523;BME280;31254;51.680;5.394;2023-12-20T00:13:28;101663.53;;;8.62;97.71
45523;BME280;31254;51.680;5.394;2023-12-20T00:15:54;101608.63;;;8.33;97.72
45523;BME280;31254;51.680;5.394;2023-12-20T00:18:21;101600.59;;;8.31;97.62
45523;BME280;31254;51.680;5.394;2023-12-20T00:20:47;101672.00;;;8.70;97.34
45523;BME280;31254;51.680;5.394;2023-12-20T00:23:14;101587.06;;;8.18;97.72
45523;BME280;31254;51.680;5.394;2023-12-20T00:25:41;101674.72;;;8.70;97.70
45523;BME280;31254;51.680;5.394;2023-12-20T00:28:07;101581.13;;;8.13;97.64
45523;BME280;31254;51.680;5.394;2023-12-20T00:30:34;101661.00;;;8.72;97.21
45523;BME280;31254;51.680;5.394;2023-12-20T00:33:01;101669.78;;;8.75;97.33
45523;BME280;31254;51.680;5.394;2023-12-20T00:35:27;101678.16;;;8.72;97.61
45523;BME280;31254;51.680;5.394;2023-12-20T00:37:54;101591.03;;;8.26;97.46
45523;BME280;31254;51.680;5.394;2023-12-20T00:40:20;101571.34;;;8.11;97.38
45523;BME280;31254;51.680;5.394;2023-12-20T00:42:48;101673.84;;;8.70;97.31
45523;BME280;31254;51.680;5.394;2023-12-20T00:45:15;101641.16;;;8.58;97.61
45523;BME280;31254;51.680;5.394;2023-12-20T00:47:41;101662.44;;;8.65;97.76
45523;BME280;31254;51.680;5.394;2023-12-20T00:50:09;101615.13;;;8.43;97.30
45523;BME280;31254;51.680;5.394;2023-12-20T00:52:36;101655.03;;;8.67;97.16
45523;BME280;31254;51.680;5.394;2023-12-20T00:55:03;101631.72;;;8.51;97.50
45523;BME280;31254;51.680;5.394;2023-12-20T00:57:30;101453.44;;;7.41;97.42
45523;BME280;31254;51.680;5.394;2023-12-20T00:59:57;101554.00;;;8.00;97.21
45523;BME280;31254;51.680;5.394;2023-12-20T01:02:24;101649.31;;;8.58;97.84
45523;BME280;31254;51.680;5.394;2023-12-20T01:04:51;101649.44;;;8.57;97.54
45523;BME280;31254;51.680;5.394;2023-12-20T01:07:17;101260.56;;;6.21;97.25
45523;BME280;31254;51.680;5.394;2023-12-20T01:09:44;101660.56;;;8.54;97.45
45523;BME280;31254;51.680;5.394;2023-12-20T01:12:11;101447.88;;;7.18;97.36
45523;BME280;31254;51.680;5.394;2023-12-20T01:14:37;101485.91;;;7.42;97.60
45523;BME280;31254;51.680;5.394;2023-12-20T01:17:06;101658.28;;;8.48;97.80
45523;BME280;31254;51.680;5.394;2023-12-20T01:19:32;101659.25;;;8.47;97.85
45523;BME280;31254;51.680;5.394;2023-12-20T01:21:59;101665.59;;;8.47;97.39
45523;BME280;31254;51.680;5.394;2023-12-20T01:24:26;101575.00;;;7.85;97.42
45523;BME280;31254;51.680;5.394;2023-12-20T01:26:52;101540.00;;;7.69;97.29
45523;BME280;31254;51.680;5.394;2023-12-20T01:29:19;101598.97;;;8.04;97.49
45523;BME280;31254;51.680;5.394;2023-12-20T01:31:45;101620.88;;;8.14;97.50
45523;BME280;31254;51.680;5.394;2023-12-20T01:34:12;101655.72;;;8.33;97.71
45523;BME280;31254;51.680;5.394;2023-12-20T01:36:39;101667.72;;;8.42;97.46
45523;BME280;31254;51.680;5.394;2023-12-20T01:39:05;101667.00;;;8.40;97.52
45523;BME280;31254;51.680;5.394;2023-12-20T01:41:50;101666.13;;;8.39;97.63
45523;BME280;31254;51.680;5.394;2023-12-20T01:44:17;101621.22;;;8.10;97.71
45523;BME280;31254;51.680;5.394;2023-12-20T01:46:43;101572.66;;;7.81;97.58
45523;BME280;31254;51.680;5.394;2023-12-20T01:49:10;101418.44;;;6.88;97.31
45523;BME280;31254;51.680;5.394;2023-12-20T01:51:37;101664.63;;;8.35;97.37
45523;BME280;31254;51.680;5.394;2023-12-20T01:54:04;101674.22;;;8.28;97.50
45523;BME280;31254;51.680;5.394;2023-12-20T01:56:31;101586.94;;;7.72;97.58
45523;BME280;31254;51.680;5.394;2023-12-20T01:58:58;101683.47;;;8.26;97.72
45523;BME280;31254;51.680;5.394;2023-12-20T02:01:25;101574.31;;;7.71;97.67
45523;BME280;31254;51.680;5.394;2023-12-20T02:03:52;101514.28;;;7.25;97.78
45523;BME280;31254;51.680;5.394;2023-12-20T02:06:21;101640.47;;;8.06;97.39
45523;BME280;31254;51.680;5.394;2023-12-20T02:08:49;101565.22;;;7.59;97.53
45523;BME280;31254;51.680;5.394;2023-12-20T02:11:16;101670.22;;;8.21;97.80
45523;BME280;31254;51.680;5.394;2023-12-20T02:13:43;101673.03;;;8.19;97.67
45523;BME280;31254;51.680;5.394;2023-12-20T02:16:09;101668.63;;;8.18;97.84
45523;BME280;31254;51.680;5.394;2023-12-20T02:18:36;101665.44;;;8.24;97.53
45523;BME280;31254;51.680;5.394;2023-12-20T02:21:04;101659.56;;;8.18;97.79
45523;BME280;31254;51.680;5.394;2023-12-20T02:23:32;101659.72;;;8.16;97.84
45523;BME280;31254;51.680;5.394;2023-12-20T02:25:58;101553.28;;;7.61;97.26
45523;BME280;31254;51.680;5.394;2023-12-20T02:28:25;101591.91;;;7.78;97.23
45523;BME280;31254;51.680;5.394;2023-12-20T02:30:51;101673.47;;;8.26;97.17
45523;BME280;31254;51.680;5.394;2023-12-20T02:33:18;101608.22;;;7.78;97.50
45523;BME280;31254;51.680;5.394;2023-12-20T02:35:45;101579.16;;;7.54;97.58
45523;BME280;31254;51.680;5.394;2023-12-20T02:38:11;101556.72;;;7.39;97.33
45523;BME280;31254;51.680;5.394;2023-12-20T02:40:38;101663.09;;;8.07;97.52
45523;BME280;31254;51.680;5.394;2023-12-20T02:43:04;101657.56;;;8.09;97.80
45523;BME280;31254;51.680;5.394;2023-12-20T02:45:31;101584.66;;;7.65;97.51
45523;BME280;31254;51.680;5.394;2023-12-20T02:47:57;101646.69;;;8.09;97.90
45523;BME280;31254;51.680;5.394;2023-12-20T02:50:24;101648.41;;;8.10;97.69
45523;BME280;31254;51.680;5.394;2023-12-20T02:52:50;101604.78;;;7.87;97.49
45523;BME280;31254;51.680;5.394;2023-12-20T02:55:17;101652.88;;;8.11;97.85
45523;BME280;31254;51.680;5.394;2023-12-20T02:57:44;101552.22;;;7.51;97.35
45523;BME280;31254;51.680;5.394;2023-12-20T03:00:11;101557.53;;;7.53;97.28
45523;BME280;31254;51.680;5.394;2023-12-20T03:02:37;101656.44;;;8.11;97.25
45523;BME280;31254;51.680;5.394;2023-12-20T03:05:04;101658.31;;;8.11;97.61
45523;BME280;31254;51.680;5.394;2023-12-20T03:07:31;101632.91;;;7.99;97.51
45523;BME280;31254;51.680;5.394;2023-12-20T03:09:57;101533.13;;;7.40;97.26
45523;BME280;31254;51.680;5.394;2023-12-20T03:12:44;101609.25;;;7.88;97.44
45523;BME280;31254;51.680;5.394;2023-12-20T03:15:10;101642.84;;;8.11;97.36
45523;BME280;31254;51.680;5.394;2023-12-20T03:17:37;101498.88;;;7.26;96.93
45523;BME280;31254;51.680;5.394;2023-12-20T03:20:04;101624.66;;;8.00;96.95
45523;BME280;31254;51.680;5.394;2023-12-20T03:22:31;101477.84;;;7.17;96.98
45523;BME280;31254;51.680;5.394;2023-12-20T03:24:57;101341.84;;;6.47;96.96
45523;BME280;31254;51.680;5.394;2023-12-20T03:27:24;101530.69;;;7.61;96.90
45523;BME280;31254;51.680;5.394;2023-12-20T03:29:50;101610.41;;;7.97;96.77
45523;BME280;31254;51.680;5.394;2023-12-20T03:32:17;101521.72;;;7.47;97.15
45523;BME280;31254;51.680;5.394;2023-12-20T03:34:43;101632.97;;;8.10;97.21
45523;BME280;31254;51.680;5.394;2023-12-20T03:37:10;101583.41;;;7.82;97.06
45523;BME280;31254;51.680;5.394;2023-12-20T03:39:37;101535.47;;;7.57;97.10
45523;BME280;31254;51.680;5.394;2023-12-20T03:42:04;101594.34;;;7.94;96.97
45523;BME280;31254;51.680;5.394;2023-12-20T03:44:30;101594.34;;;7.94;96.85
45523;BME280;31254;51.680;5.394;2023-12-20T03:46:57;101569.06;;;7.80;96.72
45523;BME280;31254;51.680;5.394;2023-12-20T03:49:23;101454.41;;;7.03;96.74
45523;BME280;31254;51.680;5.394;2023-12-20T03:51:50;101595.88;;;7.85;96.86
45523;BME280;31254;51.680;5.394;2023-12-20T03:54:16;101550.03;;;7.56;96.92
45523;BME280;31254;51.680;5.394;2023-12-20T03:56:43;101611.22;;;7.86;97.12
45523;BME280;31254;51.680;5.394;2023-12-20T03:59:09;101411.88;;;6.66;97.08
45523;BME280;31254;51.680;5.394;2023-12-20T04:01:36;101640.06;;;8.00;96.90
45523;BME280;31254;51.680;5.394;2023-12-20T04:04:02;101601.31;;;7.85;97.10
45523;BME280;31254;51.680;5.394;2023-12-20T04:06:29;101624.88;;;7.97;97.00
45523;BME280;31254;51.680;5.394;2023-12-20T04:08:56;101630.31;;;7.97;97.22
45523;BME280;31254;51.680;5.394;2023-12-20T04:11:22;101631.28;;;7.96;97.41
45523;BME280;31254;51.680;5.394;2023-12-20T04:13:49;101543.25;;;7.38;97.40
45523;BME280;31254;51.680;5.394;2023-12-20T04:16:16;101570.84;;;7.68;97.17
45523;BME280;31254;51.680;5.394;2023-12-20T04:18:42;101496.72;;;7.18;97.18
45523;BME280;31254;51.680;5.394;2023-12-20T04:21:09;101609.47;;;7.85;96.98
45523;BME280;31254;51.680;5.394;2023-12-20T04:23:35;101598.72;;;7.83;96.97
45523;BME280;31254;51.680;5.394;2023-12-20T04:26:02;101630.75;;;7.91;97.22
45523;BME280;31254;51.680;5.394;2023-12-20T04:28:29;101470.38;;;6.94;97.50
45523;BME280;31254;51.680;5.394;2023-12-20T04:30:58;101438.97;;;6.79;97.27
45523;BME280;31254;51.680;5.394;2023-12-20T04:33:25;101629.00;;;7.90;97.38
45523;BME280;31254;51.680;5.394;2023-12-20T04:35:52;101393.66;;;6.55;97.23
45523;BME280;31254;51.680;5.394;2023-12-20T04:38:18;101622.03;;;7.99;96.82
45523;BME280;31254;51.680;5.394;2023-12-20T04:40:45;101617.41;;;7.88;97.46
45523;BME280;31254;51.680;5.394;2023-12-20T04:43:11;101628.50;;;7.85;97.52
45523;BME280;31254;51.680;5.394;2023-12-20T04:45:39;101543.28;;;7.25;98.08
45523;BME280;31254;51.680;5.394;2023-12-20T04:48:05;101651.84;;;7.87;97.88
45523;BME280;31254;51.680;5.394;2023-12-20T04:50:32;101643.72;;;7.87;97.56
45523;BME280;31254;51.680;5.394;2023-12-20T04:53:00;101555.41;;;7.32;97.64
45523;BME280;31254;51.680;5.394;2023-12-20T04:55:27;101642.94;;;7.85;97.73
45523;BME280;31254;51.680;5.394;2023-12-20T04:57:53;101638.38;;;7.86;97.59
45523;BME280;31254;51.680;5.394;2023-12-20T05:00:21;101642.72;;;7.88;97.26
45523;BME280;31254;51.680;5.394;2023-12-20T05:02:47;101643.59;;;7.89;97.70
45523;BME280;31254;51.680;5.394;2023-12-20T05:05:14;101629.50;;;7.84;97.68
45523;BME280;31254;51.680;5.394;2023-12-20T05:07:41;101623.16;;;7.83;97.76
45523;BME280;31254;51.680;5.394;2023-12-20T05:10:09;101548.00;;;7.47;97.61
45523;BME280;31254;51.680;5.394;2023-12-20T05:12:35;101441.22;;;6.85;97.23
45523;BME280;31254;51.680;5.394;2023-12-20T05:15:02;101548.34;;;7.42;97.42
45523;BME280;31254;51.680;5.394;2023-12-20T05:17:29;101514.50;;;7.22;97.57
45523;BME280;31254;51.680;5.394;2023-12-20T05:19:55;101585.19;;;7.71;97.45
45523;BME280;31254;51.680;5.394;2023-12-20T05:22:22;101496.94;;;7.15;97.53
45523;BME280;31254;51.680;5.394;2023-12-20T05:24:49;101530.78;;;7.22;97.22
45523;BME280;31254;51.680;5.394;2023-12-20T05:27:16;101558.94;;;7.58;97.42
45523;BME280;31254;51.680;5.394;2023-12-20T05:29:42;101558.72;;;7.61;97.02
45523;BME280;31254;51.680;5.394;2023-12-20T05:32:10;101602.63;;;7.92;97.56
45523;BME280;31254;51.680;5.394;2023-12-20T05:34:36;101561.28;;;7.63;97.60
45523;BME280;31254;51.680;5.394;2023-12-20T05:37:03;101532.88;;;7.56;97.51
45523;BME280;31254;51.680;5.394;2023-12-20T05:39:30;101563.56;;;7.69;97.37
45523;BME280;31254;51.680;5.394;2023-12-20T05:41:57;101540.16;;;7.55;97.13
45523;BME280;31254;51.680;5.394;2023-12-20T05:44:24;101614.63;;;8.01;97.14
45523;BME280;31254;51.680;5.394;2023-12-20T05:46:50;101601.06;;;8.01;97.42
45523;BME280;31254;51.680;5.394;2023-12-20T05:49:17;101602.91;;;8.00;97.44
45523;BME280;31254;51.680;5.394;2023-12-20T05:51:43;101483.56;;;7.25;96.86
45523;BME280;31254;51.680;5.394;2023-12-20T05:54:10;101534.31;;;7.48;97.29
45523;BME280;31254;51.680;5.394;2023-12-20T05:56:36;101522.16;;;7.41;97.02
45523;BME280;31254;51.680;5.394;2023-12-20T05:59:03;101483.66;;;7.23;96.72
45523;BME280;31254;51.680;5.394;2023-12-20T06:01:29;101628.13;;;8.02;97.05
45523;BME280;31254;51.680;5.394;2023-12-20T06:03:56;101626.13;;;8.04;96.65
45523;BME280;31254;51.680;5.394;2023-12-20T06:06:23;101521.31;;;7.41;96.58
45523;BME280;31254;51.680;5.394;2023-12-20T06:08:50;101429.28;;;6.88;96.61
45523;BME280;31254;51.680;5.394;2023-12-20T06:11:17;101631.69;;;8.03;96.60
45523;BME280;31254;51.680;5.394;2023-12-20T06:13:43;101559.56;;;7.62;96.80
45523;BME280;31254;51.680;5.394;2023-12-20T06:16:10;101372.19;;;6.52;96.29
45523;BME280;31254;51.680;5.394;2023-12-20T06:18:37;101535.06;;;7.50;96.66
45523;BME280;31254;51.680;5.394;2023-12-20T06:21:04;101633.22;;;8.07;96.74
45523;BME280;31254;51.680;5.394;2023-12-20T06:23:31;101510.25;;;7.31;96.47
45523;BME280;31254;51.680;5.394;2023-12-20T06:25:57;101580.63;;;7.71;96.40
45523;BME280;31254;51.680;5.394;2023-12-20T06:28:24;101631.56;;;8.04;96.62
45523;BME280;31254;51.680;5.394;2023-12-20T06:30:50;101637.47;;;7.98;96.77
45523;BME280;31254;51.680;5.394;2023-12-20T06:33:19;101581.72;;;7.68;96.31
45523;BME280;31254;51.680;5.394;2023-12-20T06:35:48;101638.56;;;7.96;96.25
45523;BME280;31254;51.680;5.394;2023-12-20T06:38:15;101633.78;;;7.99;95.83
45523;BME280;31254;51.680;5.394;2023-12-20T06:40:41;101595.59;;;7.77;95.79
45523;BME280;31254;51.680;5.394;2023-12-20T06:43:09;101573.03;;;7.63;96.24
45523;BME280;31254;51.680;5.394;2023-12-20T06:45:51;101588.53;;;7.74;96.08
45523;BME280;31254;51.680;5.394;2023-12-20T06:48:18;101638.06;;;7.91;96.53
45523;BME280;31254;51.680;5.394;2023-12-20T06:50:46;101458.91;;;6.91;96.21
45523;BME280;31254;51.680;5.394;2023-12-20T06:53:13;101668.16;;;7.87;96.96
45523;BME280;31254;51.680;5.394;2023-12-20T06:55:39;101635.13;;;7.94;96.46
45523;BME280;31254;51.680;5.394;2023-12-20T06:58:06;101629.78;;;7.92;96.29
45523;BME280;31254;51.680;5.394;2023-12-20T07:00:33;101473.75;;;6.98;96.08
45523;BME280;31254;51.680;5.394;2023-12-20T07:03:00;101640.28;;;7.97;95.91
45523;BME280;31254;51.680;5.394;2023-12-20T07:05:27;101601.78;;;7.79;95.94
45523;BME280;31254;51.680;5.394;2023-12-20T07:07:53;101614.16;;;7.83;96.33
45523;BME280;31254;51.680;5.394;2023-12-20T07:10:20;101624.47;;;7.91;96.32
45523;BME280;31254;51.680;5.394;2023-12-20T07:12:47;101504.00;;;7.18;96.15
45523;BME280;31254;51.680;5.394;2023-12-20T07:15:15;101563.16;;;7.62;96.22
45523;BME280;31254;51.680;5.394;2023-12-20T07:17:42;101585.59;;;7.77;96.51
45523;BME280;31254;51.680;5.394;2023-12-20T07:20:10;101578.16;;;7.68;96.45
45523;BME280;31254;51.680;5.394;2023-12-20T07:22:37;101621.53;;;7.94;96.49
45523;BME280;31254;51.680;5.394;2023-12-20T07:25:04;101623.34;;;7.93;96.20
45523;BME280;31254;51.680;5.394;2023-12-20T07:27:31;101539.97;;;7.45;96.18
45523;BME280;31254;51.680;5.394;2023-12-20T07:29:58;101618.38;;;7.87;96.67
45523;BME280;31254;51.680;5.394;2023-12-20T07:32:25;101441.97;;;6.87;96.61
45523;BME280;31254;51.680;5.394;2023-12-20T07:34:51;101164.78;;;5.21;96.21
45523;BME280;31254;51.680;5.394;2023-12-20T07:37:18;101617.69;;;7.96;96.35
45523;BME280;31254;51.680;5.394;2023-12-20T07:39:46;101528.94;;;7.36;96.55
45523;BME280;31254;51.680;5.394;2023-12-20T07:42:13;101561.81;;;7.44;96.75
45523;BME280;31254;51.680;5.394;2023-12-20T07:44:39;101603.28;;;7.83;96.71
45523;BME280;31254;51.680;5.394;2023-12-20T07:47:06;101609.69;;;7.82;96.72
45523;BME280;31254;51.680;5.394;2023-12-20T07:49:32;101601.66;;;7.80;96.66
45523;BME280;31254;51.680;5.394;2023-12-20T07:51:59;101535.09;;;7.38;96.63
45523;BME280;31254;51.680;5.394;2023-12-20T07:54:26;101611.56;;;7.81;96.87
45523;BME280;31254;51.680;5.394;2023-12-20T07:56:52;101613.41;;;7.81;96.97
45523;BME280;31254;51.680;5.394;2023-12-20T07:59:19;101619.38;;;7.86;96.87
45523;BME280;31254;51.680;5.394;2023-12-20T08:01:57;101618.38;;;7.87;96.84
45523;BME280;31254;51.680;5.394;2023-12-20T08:04:27;101539.91;;;7.34;96.83
45523;BME280;31254;51.680;5.394;2023-12-20T08:06:54;101578.06;;;7.57;96.42
45523;BME280;31254;51.680;5.394;2023-12-20T08:09:21;101516.69;;;7.17;96.65
45523;BME280;31254;51.680;5.394;2023-12-20T08:11:48;101541.97;;;7.30;97.09
45523;BME280;31254;51.680;5.394;2023-12-20T08:14:15;101530.97;;;7.32;96.43
45523;BME280;31254;51.680;5.394;2023-12-20T08:16:45;101542.81;;;7.44;96.45
45523;BME280;31254;51.680;5.394;2023-12-20T08:19:11;101471.16;;;6.97;96.21
45523;BME280;31254;51.680;5.394;2023-12-20T08:21:38;101497.41;;;6.96;96.07
45523;BME280;31254;51.680;5.394;2023-12-20T08:24:05;101491.72;;;7.12;96.13
45523;BME280;31254;51.680;5.394;2023-12-20T08:26:32;101546.81;;;7.38;96.61
45523;BME280;31254;51.680;5.394;2023-12-20T08:28:59;101433.88;;;6.74;96.14
45523;BME280;31254;51.680;5.394;2023-12-20T08:31:28;101574.75;;;7.64;96.27
45523;BME280;31254;51.680;5.394;2023-12-20T08:33:55;101518.06;;;7.36;96.34
45523;BME280;31254;51.680;5.394;2023-12-20T08:36:22;101414.78;;;6.76;96.33
45523;BME280;31254;51.680;5.394;2023-12-20T08:38:50;101534.53;;;7.45;96.08
45523;BME280;31254;51.680;5.394;2023-12-20T08:41:17;101628.97;;;8.03;95.61
45523;BME280;31254;51.680;5.394;2023-12-20T08:43:44;101583.53;;;7.81;95.65
45523;BME280;31254;51.680;5.394;2023-12-20T08:46:11;101619.22;;;8.00;95.98
45523;BME280;31254;51.680;5.394;2023-12-20T08:48:38;101549.34;;;7.65;95.76
45523;BME280;31254;51.680;5.394;2023-12-20T08:51:05;101506.09;;;7.38;95.72
45523;BME280;31254;51.680;5.394;2023-12-20T08:53:36;101601.09;;;7.88;95.91
45523;BME280;31254;51.680;5.394;2023-12-20T08:56:03;101611.41;;;7.96;95.94
45523;BME280;31254;51.680;5.394;2023-12-20T08:58:29;101586.03;;;7.84;95.94
45523;BME280;31254;51.680;5.394;2023-12-20T09:00:56;101575.50;;;7.79;95.90
45523;BME280;31254;51.680;5.394;2023-12-20T09:03:24;101510.66;;;7.38;96.34
45523;BME280;31254;51.680;5.394;2023-12-20T09:05:51;101572.50;;;7.71;96.05
45523;BME280;31254;51.680;5.394;2023-12-20T09:08:17;101609.53;;;7.96;96.37
45523;BME280;31254;51.680;5.394;2023-12-20T09:10:44;101604.13;;;7.96;96.23
45523;BME280;31254;51.680;5.394;2023-12-20T09:13:11;101605.75;;;7.99;95.77
45523;BME280;31254;51.680;5.394;2023-12-20T09:15:38;101585.38;;;7.80;96.21
45523;BME280;31254;51.680;5.394;2023-12-20T09:18:05;101470.88;;;7.12;95.66
45523;BME280;31254;51.680;5.394;2023-12-20T09:20:33;101605.41;;;8.03;95.88
45523;BME280;31254;51.680;5.394;2023-12-20T09:23:00;101588.38;;;7.88;96.29
45523;BME280;31254;51.680;5.394;2023-12-20T09:25:26;101538.72;;;7.62;95.93
45523;BME280;31254;51.680;5.394;2023-12-20T09:27:53;101555.19;;;7.72;95.81
45523;BME280;31254;51.680;5.394;2023-12-20T09:30:20;101437.38;;;7.01;95.67
45523;BME280;31254;51.680;5.394;2023-12-20T09:32:56;101521.91;;;7.57;95.75
45523;BME280;31254;51.680;5.394;2023-12-20T09:35:23;101560.91;;;7.80;95.63
45523;BME280;31254;51.680;5.394;2023-12-20T09:37:50;101440.63;;;7.06;95.91
45523;BME280;31254;51.680;5.394;2023-12-20T09:40:19;101571.78;;;7.80;96.34
45523;BME280;31254;51.680;5.394;2023-12-20T09:42:57;101558.19;;;7.80;96.16
45523;BME280;31254;51.680;5.394;2023-12-20T09:45:24;101526.81;;;7.52;95.91
45523;BME280;31254;51.680;5.394;2023-12-20T09:47:54;101605.75;;;7.99;96.12
45523;BME280;31254;51.680;5.394;2023-12-20T09:50:22;101548.28;;;7.68;96.15
45523;BME280;31254;51.680;5.394;2023-12-20T09:52:53;101555.53;;;7.67;96.28
45523;BME280;31254;51.680;5.394;2023-12-20T09:55:20;101596.31;;;7.92;96.45
45523;BME280;31254;51.680;5.394;2023-12-20T09:57:49;101194.03;;;5.55;96.10
45523;BME280;31254;51.680;5.394;2023-12-20T10:00:16;101609.03;;;7.91;96.26
45523;BME280;31254;51.680;5.394;2023-12-20T10:02:59;101446.75;;;6.84;96.16
45523;BME280;31254;51.680;5.394;2023-12-20T10:05:28;101614.47;;;7.91;96.25
45523;BME280;31254;51.680;5.394;2023-12-20T10:07:56;101553.75;;;7.55;96.33
45523;BME280;31254;51.680;5.394;2023-12-20T10:10:23;101535.69;;;7.54;96.14
45523;BME280;31254;51.680;5.394;2023-12-20T10:13:10;101607.34;;;8.01;95.71
45523;BME280;31254;51.680;5.394;2023-12-20T10:15:37;101530.69;;;7.61;95.79
45523;BME280;31254;51.680;5.394;2023-12-20T10:18:04;101610.19;;;8.00;96.15
45523;BME280;31254;51.680;5.394;2023-12-20T10:20:31;101606.59;;;7.99;96.20
45523;BME280;31254;51.680;5.394;2023-12-20T10:22:59;101599.19;;;8.01;96.10
45523;BME280;31254;51.680;5.394;2023-12-20T10:25:26;101561.19;;;7.64;96.34
45523;BME280;31254;51.680;5.394;2023-12-20T10:28:13;101606.81;;;7.96;96.45
45523;BME280;31254;51.680;5.394;2023-12-20T10:30:41;101611.94;;;8.01;96.14
45523;BME280;31254;51.680;5.394;2023-12-20T10:33:09;101616.78;;;8.09;96.05
45523;BME280;31254;51.680;5.394;2023-12-20T10:35:38;101522.59;;;7.72;95.14
45523;BME280;31254;51.680;5.394;2023-12-20T10:38:10;101542.00;;;7.79;95.55
45523;BME280;31254;51.680;5.394;2023-12-20T10:40:38;101497.00;;;7.63;95.72
45523;BME280;31254;51.680;5.394;2023-12-20T10:43:05;101552.44;;;7.85;95.59
45523;BME280;31254;51.680;5.394;2023-12-20T10:45:32;101467.63;;;7.44;95.59
45523;BME280;31254;51.680;5.394;2023-12-20T10:47:59;101580.22;;;8.13;95.71
45523;BME280;31254;51.680;5.394;2023-12-20T10:50:28;101590.88;;;8.16;95.58
45523;BME280;31254;51.680;5.394;2023-12-20T10:52:57;101421.41;;;7.09;95.68
45523;BME280;31254;51.680;5.394;2023-12-20T10:55:25;101455.53;;;7.37;95.58
45523;BME280;31254;51.680;5.394;2023-12-20T10:57:54;101472.50;;;7.52;96.09
45523;BME280;31254;51.680;5.394;2023-12-20T11:00:25;101565.91;;;8.11;95.95
45523;BME280;31254;51.680;5.394;2023-12-20T11:02:53;101461.66;;;7.52;95.74
45523;BME280;31254;51.680;5.394;2023-12-20T11:05:30;101501.50;;;7.76;95.88
45523;BME280;31254;51.680;5.394;2023-12-20T11:13:37;101564.44;;;8.18;96.22
45523;BME280;31254;51.680;5.394;2023-12-20T11:16:07;101551.63;;;8.20;95.58
45523;BME280;31254;51.680;5.394;2023-12-20T11:18:34;101378.84;;;7.09;96.06
45523;BME280;31254;51.680;5.394;2023-12-20T11:21:02;101564.00;;;8.35;95.59
45523;BME280;31254;51.680;5.394;2023-12-20T11:23:32;101601.16;;;8.23;95.84
45523;BME280;31254;51.680;5.394;2023-12-20T11:26:01;101510.88;;;7.96;96.34
45523;BME280;31254;51.680;5.394;2023-12-20T11:28:29;101456.91;;;7.67;96.01
45523;BME280;31254;51.680;5.394;2023-12-20T11:31:01;101510.75;;;7.97;95.89
45523;BME280;31254;51.680;5.394;2023-12-20T11:33:30;101484.50;;;7.85;96.00
45523;BME280;31254;51.680;5.394;2023-12-20T11:35:59;101491.47;;;7.89;95.89
45523;BME280;31254;51.680;5.394;2023-12-20T11:38:26;101551.78;;;8.30;96.00
45523;BME280;31254;51.680;5.394;2023-12-20T11:40:56;101504.47;;;8.08;96.43
45523;BME280;31254;51.680;5.394;2023-12-20T11:43:35;101549.06;;;8.30;96.37
45523;BME280;31254;51.680;5.394;2023-12-20T11:46:06;101550.66;;;8.32;95.79
45523;BME280;31254;51.680;5.394;2023-12-20T11:48:36;101493.88;;;8.05;96.13
45523;BME280;31254;51.680;5.394;2023-12-20T11:51:11;101329.16;;;7.09;95.87
45523;BME280;31254;51.680;5.394;2023-12-20T11:53:39;101409.38;;;7.61;96.14
45523;BME280;31254;51.680;5.394;2023-12-20T11:56:06;101365.28;;;7.33;95.74
45523;BME280;31254;51.680;5.394;2023-12-20T11:58:36;101530.66;;;8.33;96.39
45523;BME280;31254;51.680;5.394;2023-12-20T12:01:03;101511.09;;;8.17;96.25
45523;BME280;31254;51.680;5.394;2023-12-20T12:03:31;101495.63;;;8.17;96.35
45523;BME280;31254;51.680;5.394;2023-12-20T12:05:57;101507.53;;;8.39;96.06
45523;BME280;31254;51.680;5.394;2023-12-20T12:08:24;101411.59;;;7.67;96.42
45523;BME280;31254;51.680;5.394;2023-12-20T12:10:51;101454.91;;;7.93;96.12
45523;BME280;31254;51.680;5.394;2023-12-20T12:13:18;101500.25;;;8.28;96.48
45523;BME280;31254;51.680;5.394;2023-12-20T12:15:44;101490.06;;;8.19;96.14
45523;BME280;31254;51.680;5.394;2023-12-20T12:18:15;101506.31;;;8.32;96.55
45523;BME280;31254;51.680;5.394;2023-12-20T12:20:42;101508.16;;;8.31;96.57
45523;BME280;31254;51.680;5.394;2023-12-20T12:23:09;101468.53;;;8.04;96.10
45523;BME280;31254;51.680;5.394;2023-12-20T12:25:36;101432.44;;;7.91;96.21
45523;BME280;31254;51.680;5.394;2023-12-20T12:28:08;101455.94;;;8.03;96.30
45523;BME280;31254;51.680;5.394;2023-12-20T12:30:35;101311.06;;;7.21;96.22
45523;BME280;31254;51.680;5.394;2023-12-20T12:33:11;101487.88;;;8.35;96.23
45523;BME280;31254;51.680;5.394;2023-12-20T12:35:40;101412.72;;;8.00;96.53
45523;BME280;31254;51.680;5.394;2023-12-20T12:38:07;101486.56;;;8.41;96.03
45523;BME280;31254;51.680;5.394;2023-12-20T12:40:35;101472.69;;;8.21;96.64
45523;BME280;31254;51.680;5.394;2023-12-20T12:43:02;101417.09;;;7.90;96.60
45523;BME280;31254;51.680;5.394;2023-12-20T12:45:29;101394.00;;;7.84;96.58
45523;BME280;31254;51.680;5.394;2023-12-20T12:47:56;101404.28;;;7.92;96.46
45523;BME280;31254;51.680;5.394;2023-12-20T12:50:23;101377.44;;;7.76;96.73
45523;BME280;31254;51.680;5.394;2023-12-20T12:52:50;101319.25;;;7.32;96.93
45523;BME280;31254;51.680;5.394;2023-12-20T12:55:16;101429.03;;;8.12;96.96
45523;BME280;31254;51.680;5.394;2023-12-20T12:57:43;101358.19;;;7.79;96.46
45523;BME280;31254;51.680;5.394;2023-12-20T13:00:11;101460.03;;;8.45;97.18
45523;BME280;31254;51.680;5.394;2023-12-20T13:02:37;101195.16;;;6.87;96.46
45523;BME280;31254;51.680;5.394;2023-12-20T13:05:08;101452.00;;;8.54;96.84
45523;BME280;31254;51.680;5.394;2023-12-20T13:07:35;101390.63;;;8.16;96.64